createdAt,value
2023-02-09T00:00:48.692Z,21.4
2023-02-09T00:06:37.848Z,22.2
2023-02-09T00:12:27.571Z,22.9
2023-02-09T00:18:16.768Z,27.5
2023-02-09T00:24:06.675Z,25
2023-02-09T00:29:56.469Z,25.9
2023-02-09T00:35:46.183Z,24
2023-02-09T00:41:36.014Z,24
2023-02-09T00:47:25.776Z,22.8
2023-02-09T00:53:15.971Z,25.2
2023-02-09T00:59:04.582Z,27.4
2023-02-09T01:04:54.665Z,23.7
2023-02-09T01:10:47.878Z,25.1
2023-02-09T01:16:38.430Z,27.4
2023-02-09T01:22:28.540Z,26.7
2023-02-09T01:28:19.559Z,27.4
2023-02-09T01:34:09.774Z,25.9
2023-02-09T01:39:59.414Z,26.9
2023-02-09T01:45:50.606Z,29.2
2023-02-09T01:51:42.498Z,28.3
2023-02-09T01:57:33.419Z,29
2023-02-09T02:03:23.782Z,29.8
2023-02-09T02:09:13.746Z,29
2023-02-09T02:15:04.238Z,30.2
2023-02-09T02:20:56.790Z,30.3
2023-02-09T02:26:46.974Z,29.7
2023-02-09T02:32:36.633Z,31.4
2023-02-09T02:38:27.496Z,30.5
2023-02-09T02:44:18.457Z,30.6
2023-02-09T02:50:11.209Z,30.8
2023-02-09T02:56:00.650Z,31.6
2023-02-09T03:01:51.105Z,29.3
2023-02-09T03:07:42.614Z,32.3
2023-02-09T03:13:33.318Z,34.4
2023-02-09T03:19:22.985Z,34.9
2023-02-09T03:25:12.946Z,35.1
2023-02-09T03:31:06.133Z,33.9
2023-02-09T03:36:58.079Z,33.5
2023-02-09T03:42:48.829Z,34.6
2023-02-09T03:48:38.840Z,32.5
2023-02-09T03:54:29.284Z,32.6
2023-02-09T04:00:20.374Z,34.4
2023-02-09T04:06:12.279Z,32.6
2023-02-09T04:12:02.481Z,36.3
2023-02-09T04:17:55.771Z,35
2023-02-09T04:23:45.863Z,33
2023-02-09T04:29:37.192Z,34.7
2023-02-09T04:35:26.784Z,33.8
2023-02-09T04:41:16.693Z,35.5
2023-02-09T04:47:06.482Z,35.6
2023-02-09T04:52:57.506Z,34.5
2023-02-09T04:58:48.808Z,39.7
2023-02-09T05:04:39.036Z,36.5
2023-02-09T05:10:33.129Z,36.2
2023-02-09T05:16:26.363Z,37.3
2023-02-09T05:22:16.376Z,39
2023-02-09T05:28:06.881Z,39.7
2023-02-09T05:33:59.526Z,36.6
2023-02-09T05:39:49.450Z,40.3
2023-02-09T05:45:40.975Z,37.8
2023-02-09T05:51:31.174Z,40
2023-02-09T05:57:21.312Z,39.1
2023-02-09T06:03:12.217Z,41.2
2023-02-09T06:09:03.121Z,38.4
2023-02-09T06:14:55.716Z,39.6
2023-02-09T06:20:48.323Z,42.5
2023-02-09T06:26:38.771Z,38.6
2023-02-09T06:32:29.528Z,43
2023-02-09T06:38:20.314Z,40.3
2023-02-09T06:44:11.283Z,40.9
2023-02-09T06:50:01.516Z,41.4
2023-02-09T06:55:52.328Z,43.3
2023-02-09T07:01:42.912Z,43.1
2023-02-09T07:07:33.880Z,41.5
2023-02-09T07:13:25.221Z,41.5
2023-02-09T07:19:15.764Z,43.5
2023-02-09T07:25:06.050Z,42
2023-02-09T07:30:57.997Z,41.7
2023-02-09T07:36:51.759Z,44.1
2023-02-09T07:42:41.753Z,44.1
2023-02-09T07:48:32.474Z,45.2
2023-02-09T07:54:22.709Z,44.7
2023-02-09T08:00:13.498Z,42.8
2023-02-09T08:06:04.467Z,42.9
2023-02-09T08:11:55.310Z,43.4
2023-02-09T08:17:45.959Z,44.7
2023-02-09T08:23:38.009Z,43.9
2023-02-09T08:29:29.594Z,44.1
2023-02-09T08:35:20.486Z,43.4
2023-02-09T08:41:11.414Z,45.3
2023-02-09T08:47:03.219Z,44.1
2023-02-09T08:52:55.513Z,44
2023-02-09T08:58:45.819Z,42.6
2023-02-09T09:04:36.275Z,43.4
2023-02-09T09:10:27.178Z,44.3
2023-02-09T09:16:18.172Z,43.1
2023-02-09T09:22:07.188Z,43.4
2023-02-09T09:27:57.846Z,44.3
2023-02-09T09:33:48.384Z,44.6
2023-02-09T09:39:38.777Z,44.8
2023-02-09T09:45:29.420Z,41.8
2023-02-09T09:51:19.713Z,40.1
2023-02-09T09:57:08.907Z,41.4
2023-02-09T10:02:59.405Z,42.8
2023-02-09T10:08:50.125Z,38
2023-02-09T10:14:41.537Z,43.7
2023-02-09T10:20:36.586Z,40.2
2023-02-09T10:26:26.675Z,41.3
2023-02-09T10:32:17.205Z,40.6
2023-02-09T10:38:07.524Z,39.6
2023-02-09T10:43:59.915Z,39
2023-02-09T10:49:52.407Z,39.7
2023-02-09T10:55:43.674Z,38.3
2023-02-09T11:01:34.479Z,38.4
2023-02-09T11:07:24.656Z,38.6
2023-02-09T11:13:15.931Z,38
2023-02-09T11:19:12.888Z,38.6
2023-02-09T11:25:02.667Z,38.8
2023-02-09T11:30:54.918Z,40
2023-02-09T11:36:46.975Z,40.8
2023-02-09T11:42:37.742Z,36.6
2023-02-09T11:48:28.773Z,36.6
2023-02-09T11:54:19.172Z,36.4
2023-02-09T12:00:09.862Z,36
2023-02-09T12:06:00.621Z,38.1
2023-02-09T12:11:51.896Z,33.6
2023-02-09T12:17:42.432Z,28.4
2023-02-09T12:23:34.395Z,30.7
2023-02-09T12:29:25.070Z,26.1
2023-02-09T12:35:15.078Z,28.9
2023-02-09T12:41:06.102Z,24.7
2023-02-09T12:46:56.541Z,26.7
2023-02-09T12:52:46.335Z,26.5
2023-02-09T12:58:36.880Z,25.5
2023-02-09T13:04:27.186Z,28.6
2023-02-09T13:10:17.633Z,24.6
2023-02-09T13:16:11.648Z,24.1
2023-02-09T13:22:01.681Z,25.9
2023-02-09T13:27:51.971Z,21.6
2023-02-09T13:33:44.322Z,20.9
2023-02-09T13:39:34.212Z,22
2023-02-09T13:45:26.060Z,23.2
2023-02-09T13:51:18.451Z,22.6
2023-02-09T13:57:09.295Z,24.8
2023-02-09T14:02:59.563Z,24
2023-02-09T14:08:51.529Z,23.3
2023-02-09T14:14:43.064Z,26.3
2023-02-09T14:20:33.506Z,22.2
2023-02-09T14:26:23.939Z,26.1
2023-02-09T14:32:21.541Z,22.8
2023-02-09T14:38:22.015Z,20.8
2023-02-09T14:44:13.242Z,29.3
2023-02-09T14:50:04.652Z,28.7
2023-02-09T14:57:03.793Z,30
2023-02-09T15:02:54.108Z,26.3
2023-02-09T15:08:44.566Z,28.3
2023-02-09T15:14:35.895Z,24.9
2023-02-09T15:20:27.262Z,22.1
2023-02-09T15:26:17.853Z,27
2023-02-09T15:32:08.470Z,20.7
2023-02-09T15:37:59.512Z,24.9
2023-02-09T15:43:49.675Z,28.8
2023-02-09T15:49:39.877Z,31.7
2023-02-09T15:55:30.252Z,31.1
2023-02-09T16:01:20.180Z,33.1
2023-02-09T16:07:11.322Z,40.1
2023-02-09T16:13:01.882Z,40.3
2023-02-09T16:18:50.590Z,40.5
2023-02-09T16:24:40.738Z,40.8
2023-02-09T16:30:31.240Z,40.8
2023-02-09T16:36:22.273Z,47.7
2023-02-09T16:42:12.198Z,46.8
2023-02-09T16:48:04.125Z,47.7
2023-02-09T16:53:53.696Z,45.1
2023-02-09T16:59:44.088Z,45.2
2023-02-09T17:05:35.112Z,51.7
2023-02-09T17:11:26.254Z,51.5
2023-02-09T17:17:20.300Z,47.2
2023-02-09T17:23:09.446Z,48.9
2023-02-09T17:29:00.037Z,53
2023-02-09T17:34:50.522Z,62.9
2023-02-09T17:40:42.318Z,105
2023-02-09T17:46:33.211Z,88.2
2023-02-09T17:52:23.078Z,65.8
2023-02-09T17:58:13.620Z,61.3
2023-02-09T18:04:04.120Z,59.3
2023-02-09T18:09:54.619Z,56.3
2023-02-09T18:15:42.333Z,50
2023-02-09T18:21:33.034Z,53
2023-02-09T18:27:22.672Z,65.2
2023-02-09T18:33:13.881Z,59.5
2023-02-09T18:39:05.913Z,56.8
2023-02-09T18:44:56.026Z,62.5
2023-02-09T18:50:46.457Z,58.8
2023-02-09T18:56:36.264Z,63
2023-02-09T19:02:25.601Z,66
2023-02-09T19:08:17.008Z,63.9
2023-02-09T19:14:06.846Z,54.6
2023-02-09T19:19:57.328Z,52.6
2023-02-09T19:25:48.100Z,52.9
2023-02-09T19:31:38.537Z,60.4
2023-02-09T19:37:29.120Z,62.3
2023-02-09T19:43:19.372Z,55
2023-02-09T19:49:10.803Z,50.3
2023-02-09T19:55:02.831Z,52.5
2023-02-09T20:00:52.795Z,52
2023-02-09T20:06:42.843Z,47.1
2023-02-09T20:12:31.911Z,48.4
2023-02-09T20:18:23.841Z,49.4
2023-02-09T20:24:14.098Z,56.5
2023-02-09T20:30:03.227Z,50.6
2023-02-09T20:35:52.012Z,59.6
2023-02-09T20:41:45.382Z,57.5
2023-02-09T20:47:34.886Z,56.3
2023-02-09T20:53:25.062Z,59.6
2023-02-09T20:59:15.203Z,56.8
2023-02-09T21:05:06.272Z,62.1
2023-02-09T21:10:57.376Z,67.3
2023-02-09T21:16:47.746Z,68
2023-02-09T21:22:38.854Z,63.7
2023-02-09T21:28:29.649Z,59.9
2023-02-09T21:34:20.180Z,60.2
2023-02-09T21:40:11.154Z,61.3
2023-02-09T21:46:01.686Z,59.9
2023-02-09T21:51:51.513Z,57.9
2023-02-09T21:57:42.065Z,61.5
2023-02-09T22:03:32.273Z,58.3
2023-02-09T22:09:23.753Z,60.2
2023-02-09T22:15:15.362Z,60
2023-02-09T22:21:05.231Z,59.5
2023-02-09T22:26:55.358Z,59
2023-02-09T22:32:44.176Z,58.3
2023-02-09T22:38:34.080Z,59.8
2023-02-09T22:44:25.919Z,62.5
2023-02-09T22:50:17.333Z,56.7
2023-02-09T22:56:07.837Z,57.8
2023-02-09T23:03:10.510Z,57.4
2023-02-09T23:08:57.094Z,61.3
2023-02-09T23:14:46.647Z,60.3
2023-02-09T23:20:37.101Z,63.3
2023-02-09T23:26:25.792Z,59.1
2023-02-09T23:32:14.635Z,65.4
2023-02-09T23:38:03.833Z,58.1
2023-02-09T23:43:54.604Z,62.3
2023-02-09T23:49:46.611Z,61.1
2023-02-09T23:55:37.569Z,61.6
